Time;durP1;ratioP1;P1;durP2;ratioP2;P2;SDS_P1;SDS_P2;PMS_P1;PMS_P2;Temp;Humidity;BMP_temperature;BMP_pressure;BME280_temperature;BME280_humidity;BME280_pressure;Samples;Min_cycle;Max_cycle;Signal;HPM_P1;HPM_P2
2022/05/10 00:01:48;;;;;;;6.78;6.28;;;;;;;;;;5062624;28;20782;-67
2022/05/10 00:04:14;;;;;;;6.90;6.40;;;;;;;;;;5057289;28;20037;-67
2022/05/10 00:06:45;;;;;;;5.80;5.40;;;;;;;;;;5068743;28;20024;-67
2022/05/10 00:09:11;;;;;;;;;;;;;;;;;;5067915;28;20387;-67
2022/05/10 00:11:37;;;;;;;5.88;5.35;;;;;;;;;;5067689;28;19916;-67
2022/05/10 00:14:02;;;;;;;5.53;5.13;;;;;;;;;;5065768;28;20123;-66
2022/05/10 00:16:28;;;;;;;9.60;6.55;;;;;;;;;;5065605;28;20181;-66
2022/05/10 00:18:53;;;;;;;5.50;5.10;;;;;;;;;;5068880;28;20044;-66
2022/05/10 00:21:23;;;;;;;6.90;6.38;;;;;;;;;;5065620;28;20028;-66
2022/05/10 00:23:49;;;;;;;6.63;6.10;;;;;;;;;;5065802;28;20037;-66
2022/05/10 00:26:15;;;;;;;6.57;5.97;;;;;;;;;;5064614;28;20055;-66
2022/05/10 00:28:40;;;;;;;5.97;5.55;;;;;;;;;;5065968;28;20212;-66
2022/05/10 00:31:09;;;;;;;7.43;6.93;;;;;;;;;;5066818;28;20032;-65
2022/05/10 00:33:34;;;;;;;6.70;6.20;;;;;;;;;;5065292;28;20060;-66
2022/05/10 00:36:00;;;;;;;7.30;6.72;;;;;;;;;;5061794;28;20072;-66
2022/05/10 00:38:32;;;;;;;7.65;7.05;;;;;;;;;;5064074;28;20374;-66
2022/05/10 00:41:05;;;;;;;6.65;6.15;;;;;;;;;;5066086;28;20028;-67
2022/05/10 00:43:38;;;;;;;6.13;5.63;;;;;;;;;;5066649;28;20568;-66
2022/05/10 00:46:03;;;;;;;6.88;6.38;;;;;;;;;;5060508;28;20373;-67
2022/05/10 00:49:06;;;;;;;7.22;6.72;;;;;;;;;;5062390;28;20028;-66
2022/05/10 00:51:31;;;;;;;7.70;7.13;;;;;;;;;;5065387;28;20027;-66
2022/05/10 00:54:00;;;;;;;7.28;6.78;;;;;;;;;;5065308;28;20115;-66
2022/05/10 00:56:35;;;;;;;7.25;6.75;;;;;;;;;;5056903;28;20048;-66
2022/05/10 00:59:29;;;;;;;6.82;6.30;;;;;;;;;;5065777;28;20152;-66
2022/05/10 01:02:01;;;;;;;7.82;7.28;;;;;;;;;;5064445;28;20060;-66
2022/05/10 01:04:43;;;;;;;7.32;6.82;;;;;;;;;;5063941;28;20043;-66
2022/05/10 01:07:16;;;;;;;8.43;7.82;;;;;;;;;;5065440;28;20487;-66
2022/05/10 01:10:01;;;;;;;8.45;7.85;;;;;;;;;;5065895;28;20698;-67
2022/05/10 01:12:40;;;;;;;8.52;7.93;;;;;;;;;;5065053;28;20020;-66
2022/05/10 01:15:18;;;;;;;8.00;7.43;;;;;;;;;;5064190;28;20044;-67
2022/05/10 01:17:45;;;;;;;8.20;7.60;;;;;;;;;;5079604;28;20108;-66
2022/05/10 01:20:23;;;;;;;7.38;6.88;;;;;;;;;;5065431;28;20028;-68
2022/05/10 01:23:28;;;;;;;14.02;8.32;;;;;;;;;;5065077;28;20029;-66
2022/05/10 01:26:23;;;;;;;8.90;8.30;;;;;;;;;;5063209;28;20082;-67
2022/05/10 01:28:54;;;;;;;9.77;9.07;;;;;;;;;;5063133;28;20420;-67
2022/05/10 01:31:27;;;;;;;10.43;9.73;;;;;;;;;;5065730;28;20413;-67
2022/05/10 01:34:03;;;;;;;9.70;9.10;;;;;;;;;;5063951;28;20618;-67
2022/05/10 01:36:40;;;;;;;10.13;9.43;;;;;;;;;;5058086;28;20040;-67
2022/05/10 01:39:26;;;;;;;9.15;8.55;;;;;;;;;;5060854;28;20048;-67
2022/05/10 01:41:56;;;;;;;10.15;9.45;;;;;;;;;;5062086;28;20059;-67
2022/05/10 01:44:51;;;;;;;8.80;8.20;;;;;;;;;;5063498;28;20024;-67
2022/05/10 01:47:26;;;;;;;9.00;8.38;;;;;;;;;;5061814;28;20028;-67
2022/05/10 01:49:58;;;;;;;8.98;8.38;;;;;;;;;;5063207;28;20036;-67
2022/05/10 01:52:39;;;;;;;8.40;7.80;;;;;;;;;;5064025;28;20028;-67
2022/05/10 01:55:29;;;;;;;8.57;7.97;;;;;;;;;;5063473;28;20418;-67
2022/05/10 01:58:00;;;;;;;7.10;6.60;;;;;;;;;;5063679;28;20067;-67
2022/05/10 02:00:27;;;;;;;;;;;;;;;;;;5064667;28;20365;-67
2022/05/10 02:02:59;;;;;;;7.72;7.22;;;;;;;;;;5067622;28;19920;-67
2022/05/10 02:05:34;;;;;;;8.88;8.23;;;;;;;;;;5063448;28;20041;-67
2022/05/10 02:08:09;;;;;;;8.30;7.70;;;;;;;;;;5064752;28;20032;-67
2022/05/10 02:10:39;;;;;;;8.48;7.88;;;;;;;;;;5063702;28;20116;-67
2022/05/10 02:13:11;;;;;;;9.33;8.53;;;;;;;;;;5064247;28;20047;-67
2022/05/10 02:15:55;;;;;;;10.73;10.02;;;;;;;;;;5060776;28;20048;-67
2022/05/10 02:18:34;;;;;;;9.00;8.40;;;;;;;;;;5063279;28;20133;-67
2022/05/10 02:21:18;;;;;;;9.30;8.65;;;;;;;;;;5064365;28;20017;-67
2022/05/10 02:24:09;;;;;;;10.93;10.02;;;;;;;;;;5078914;28;20425;-67
2022/05/10 02:26:58;;;;;;;9.40;8.80;;;;;;;;;;5065029;28;20110;-67
2022/05/10 02:29:35;;;;;;;11.38;10.55;;;;;;;;;;5063612;28;20067;-67
2022/05/10 02:34:59;;;;;;;9.85;9.25;;;;;;;;;;5060302;28;20095;-67
2022/05/10 02:37:24;;;;;;;9.07;8.48;;;;;;;;;;5063138;28;20033;-67
2022/05/10 02:39:50;;;;;;;10.57;9.88;;;;;;;;;;5063890;28;20050;-67
2022/05/10 02:42:20;;;;;;;13.98;9.38;;;;;;;;;;5064548;28;20037;-67
2022/05/10 02:44:45;;;;;;;9.38;8.68;;;;;;;;;;5061712;28;20036;-66
2022/05/10 02:47:11;;;;;;;9.77;9.07;;;;;;;;;;5061577;28;20411;-67
2022/05/10 02:49:38;;;;;;;10.05;9.35;;;;;;;;;;5067978;28;20119;-67
2022/05/10 02:52:04;;;;;;;8.50;7.90;;;;;;;;;;5068085;28;20066;-67
2022/05/10 02:54:30;;;;;;;8.48;7.88;;;;;;;;;;5064710;28;20039;-67
2022/05/10 02:56:58;;;;;;;8.30;7.72;;;;;;;;;;5068133;28;20227;-67
2022/05/10 02:59:29;;;;;;;8.40;7.80;;;;;;;;;;5068109;28;20035;-67
2022/05/10 03:02:12;;;;;;;8.43;7.88;;;;;;;;;;5067498;28;20024;-67
2022/05/10 03:04:41;;;;;;;8.32;7.63;;;;;;;;;;5066398;28;20040;-67
2022/05/10 03:07:08;;;;;;;8.23;7.63;;;;;;;;;;5067032;28;20442;-67
2022/05/10 03:09:34;;;;;;;8.25;7.65;;;;;;;;;;5067250;28;20756;-67
2022/05/10 03:12:06;;;;;;;8.13;7.53;;;;;;;;;;5067175;28;20053;-67
2022/05/10 03:14:31;;;;;;;8.70;8.10;;;;;;;;;;5066530;28;20040;-67
2022/05/10 03:16:57;;;;;;;7.15;6.65;;;;;;;;;;5068887;28;20507;-67
2022/05/10 03:19:22;;;;;;;7.90;7.40;;;;;;;;;;5067147;28;20076;-67
2022/05/10 03:21:48;;;;;;;7.55;6.95;;;;;;;;;;5068003;28;20151;-67
2022/05/10 03:24:13;;;;;;;8.55;7.95;;;;;;;;;;5066140;28;20140;-67
2022/05/10 03:26:45;;;;;;;9.25;8.55;;;;;;;;;;5067087;28;20021;-67
2022/05/10 03:29:11;;;;;;;8.18;7.68;;;;;;;;;;5066353;28;20025;-67
2022/05/10 03:31:36;;;;;;;8.65;8.05;;;;;;;;;;5067605;28;20025;-67
2022/05/10 03:36:50;;;;;;;8.70;8.10;;;;;;;;;;5047705;28;20056;-66
2022/05/10 03:39:15;;;;;;;8.52;7.93;;;;;;;;;;5067192;28;20033;-67
2022/05/10 03:41:41;;;;;;;8.77;8.18;;;;;;;;;;5067235;28;20038;-68
2022/05/10 03:44:07;;;;;;;10.98;10.10;;;;;;;;;;5064912;28;20098;-67
2022/05/10 03:46:33;;;;;;;10.15;9.52;;;;;;;;;;5065592;28;20033;-67
2022/05/10 03:48:59;;;;;;;11.30;10.60;;;;;;;;;;5065755;28;20477;-67
2022/05/10 03:51:24;;;;;;;9.40;8.77;;;;;;;;;;5067212;28;20036;-68
2022/05/10 03:53:50;;;;;;;10.05;9.32;;;;;;;;;;5066056;28;20664;-68
2022/05/10 03:56:15;;;;;;;8.55;7.95;;;;;;;;;;5066812;28;20064;-68
2022/05/10 03:58:40;;;;;;;9.13;8.52;;;;;;;;;;5065348;28;20035;-68
2022/05/10 04:01:08;;;;;;;9.10;8.40;;;;;;;;;;5066175;28;20107;-68
2022/05/10 04:03:35;;;;;;;9.65;9.05;;;;;;;;;;5066047;28;20106;-68
2022/05/10 04:06:00;;;;;;;9.07;8.38;;;;;;;;;;5066466;28;20051;-68
2022/05/10 04:08:27;;;;;;;8.75;8.18;;;;;;;;;;5066331;28;20036;-68
2022/05/10 04:10:53;;;;;;;9.45;8.85;;;;;;;;;;5065436;28;20347;-68
2022/05/10 04:13:18;;;;;;;9.45;8.85;;;;;;;;;;5066427;28;20066;-68
2022/05/10 04:15:43;;;;;;;9.02;8.43;;;;;;;;;;5065509;28;20094;-68
2022/05/10 04:18:09;;;;;;;9.38;8.68;;;;;;;;;;5065828;28;20078;-68
2022/05/10 04:20:34;;;;;;;9.00;8.30;;;;;;;;;;5065537;28;20025;-68
2022/05/10 04:23:00;;;;;;;9.52;8.88;;;;;;;;;;5066514;28;20441;-68
2022/05/10 04:25:25;;;;;;;9.43;8.73;;;;;;;;;;5064151;28;20068;-68
2022/05/10 04:27:55;;;;;;;8.93;8.30;;;;;;;;;;5066307;28;20021;-68
2022/05/10 04:30:22;;;;;;;9.95;9.25;;;;;;;;;;5065611;28;20032;-68
2022/05/10 04:32:47;;;;;;;9.52;8.82;;;;;;;;;;5066350;28;20070;-68
2022/05/10 04:35:13;;;;;;;9.80;9.10;;;;;;;;;;5064099;28;20068;-69
2022/05/10 04:37:39;;;;;;;9.55;8.95;;;;;;;;;;5065449;28;20524;-68
2022/05/10 04:42:51;;;;;;;10.52;9.82;;;;;;;;;;5081304;28;20466;-68
2022/05/10 04:45:16;;;;;;;9.75;9.10;;;;;;;;;;5065407;28;20071;-68
2022/05/10 04:47:42;;;;;;;9.40;8.70;;;;;;;;;;5064723;28;20454;-68
2022/05/10 04:50:08;;;;;;;9.90;9.30;;;;;;;;;;5066024;28;20113;-68
2022/05/10 04:52:34;;;;;;;9.18;8.57;;;;;;;;;;5065509;28;20032;-69
2022/05/10 04:54:59;;;;;;;10.13;9.43;;;;;;;;;;5063180;28;20075;-68
2022/05/10 04:57:25;;;;;;;10.35;9.68;;;;;;;;;;5065763;28;20082;-68
2022/05/10 04:59:50;;;;;;;9.48;8.88;;;;;;;;;;5064716;28;20035;-68
2022/05/10 05:02:16;;;;;;;10.55;9.85;;;;;;;;;;5065138;28;20461;-68
2022/05/10 05:04:41;;;;;;;10.70;10.00;;;;;;;;;;5063047;28;20085;-68
2022/05/10 05:07:07;;;;;;;10.30;9.60;;;;;;;;;;5060314;28;20033;-68
2022/05/10 05:09:32;;;;;;;9.85;9.15;;;;;;;;;;5064506;28;20089;-68
2022/05/10 05:11:57;;;;;;;9.48;8.77;;;;;;;;;;5064965;28;20024;-69
2022/05/10 05:14:23;;;;;;;9.40;8.80;;;;;;;;;;5063951;28;20048;-69
2022/05/10 05:16:49;;;;;;;10.98;10.18;;;;;;;;;;5065005;28;20055;-68
2022/05/10 05:19:14;;;;;;;10.43;9.63;;;;;;;;;;5064828;28;20401;-68
2022/05/10 05:21:40;;;;;;;9.98;9.35;;;;;;;;;;5057335;28;20032;-68
2022/05/10 05:24:05;;;;;;;11.48;10.77;;;;;;;;;;5064554;28;20643;-68
2022/05/10 05:26:31;;;;;;;11.02;10.32;;;;;;;;;;5064931;28;20033;-69
2022/05/10 05:28:56;;;;;;;12.77;11.98;;;;;;;;;;5064750;28;20016;-68
2022/05/10 05:31:23;;;;;;;10.25;9.55;;;;;;;;;;5064484;28;20032;-69
2022/05/10 05:33:49;;;;;;;10.65;9.95;;;;;;;;;;5062651;28;20028;-69
2022/05/10 05:36:15;;;;;;;11.95;11.15;;;;;;;;;;5064754;28;20040;-69
2022/05/10 05:38:40;;;;;;;11.30;10.50;;;;;;;;;;5064216;28;20043;-69
2022/05/10 05:41:06;;;;;;;13.23;12.32;;;;;;;;;;5064898;28;20028;-69
2022/05/10 05:43:31;;;;;;;13.40;12.50;;;;;;;;;;5064842;28;20032;-69
2022/05/10 05:45:57;;;;;;;14.40;13.35;;;;;;;;;;5063730;28;20040;-69
2022/05/10 05:48:22;;;;;;;12.38;11.60;;;;;;;;;;5063845;28;20094;-69
2022/05/10 05:50:47;;;;;;;11.48;10.75;;;;;;;;;;5064322;28;20032;-69
2022/05/10 05:53:13;;;;;;;17.10;15.75;;;;;;;;;;5064993;28;20090;-69
2022/05/10 05:55:40;;;;;;;13.82;13.00;;;;;;;;;;5061908;28;20047;-68
2022/05/10 05:58:05;;;;;;;13.43;12.50;;;;;;;;;;5063995;28;20076;-68
2022/05/10 06:00:31;;;;;;;16.48;15.35;;;;;;;;;;5065144;28;20056;-68
2022/05/10 06:02:56;;;;;;;13.15;12.32;;;;;;;;;;5063747;28;20035;-68
2022/05/10 06:05:25;;;;;;;13.95;12.95;;;;;;;;;;5061597;28;20915;-68
2022/05/10 06:07:50;;;;;;;14.65;13.75;;;;;;;;;;5060492;28;20035;-69
2022/05/10 06:10:16;;;;;;;24.50;23.05;;;;;;;;;;5060841;28;20449;-68
2022/05/10 06:12:42;;;;;;;23.65;22.30;;;;;;;;;;5060274;28;20106;-68
2022/05/10 06:15:11;;;;;;;25.58;24.08;;;;;;;;;;5061016;28;20498;-68
2022/05/10 06:17:39;;;;;;;14.82;13.82;;;;;;;;;;5059711;28;20043;-69
2022/05/10 06:20:07;;;;;;;11.85;11.05;;;;;;;;;;5058876;28;20039;-68
2022/05/10 06:22:32;;;;;;;11.02;10.32;;;;;;;;;;5060520;28;20029;-68
2022/05/10 06:24:58;;;;;;;15.10;14.20;;;;;;;;;;5059960;28;20051;-68
2022/05/10 06:27:23;;;;;;;11.20;10.40;;;;;;;;;;5061654;28;20093;-68
2022/05/10 06:29:49;;;;;;;11.52;10.73;;;;;;;;;;5061112;28;20028;-68
2022/05/10 06:32:23;;;;;;;12.02;11.23;;;;;;;;;;5059558;28;20041;-69
2022/05/10 06:34:52;;;;;;;11.63;10.90;;;;;;;;;;5057904;28;20148;-69
2022/05/10 06:40:07;;;;;;;12.90;11.80;;;;;;;;;;5059885;28;20048;-68
2022/05/10 06:42:32;;;;;;;11.88;10.60;;;;;;;;;;5060152;28;20351;-68
2022/05/10 06:44:57;;;;;;;11.40;10.70;;;;;;;;;;5060615;28;20587;-69
2022/05/10 06:47:23;;;;;;;9.15;8.38;;;;;;;;;;5061544;28;20055;-69
2022/05/10 06:49:48;;;;;;;8.73;8.13;;;;;;;;;;5071294;28;20025;-68
2022/05/10 06:52:18;;;;;;;7.80;7.20;;;;;;;;;;5060756;28;20672;-68
2022/05/10 06:54:44;;;;;;;8.27;7.63;;;;;;;;;;5059149;28;20101;-68
2022/05/10 06:57:10;;;;;;;8.45;7.65;;;;;;;;;;5060211;28;20037;-68
2022/05/10 06:59:35;;;;;;;8.73;8.13;;;;;;;;;;5061327;28;20033;-68
2022/05/10 07:02:01;;;;;;;7.22;6.72;;;;;;;;;;5060924;28;20041;-68
2022/05/10 07:04:27;;;;;;;6.63;6.13;;;;;;;;;;5060217;28;20498;-68
2022/05/10 07:06:52;;;;;;;9.18;8.55;;;;;;;;;;5059498;28;20043;-68
2022/05/10 07:09:18;;;;;;;7.97;7.25;;;;;;;;;;5060251;28;20655;-69
2022/05/10 07:11:43;;;;;;;7.07;6.57;;;;;;;;;;5060408;28;20032;-68
2022/05/10 07:14:09;;;;;;;7.03;6.50;;;;;;;;;;5059726;28;20085;-68
2022/05/10 07:16:35;;;;;;;8.13;7.53;;;;;;;;;;5053577;28;20156;-68
2022/05/10 07:19:00;;;;;;;9.85;9.15;;;;;;;;;;5059784;28;20029;-69
2022/05/10 07:21:26;;;;;;;8.75;7.90;;;;;;;;;;5060557;28;20025;-68
2022/05/10 07:23:52;;;;;;;10.38;7.50;;;;;;;;;;5075256;28;20440;-69
2022/05/10 07:26:17;;;;;;;6.97;6.43;;;;;;;;;;5059809;28;20036;-68
2022/05/10 07:28:43;;;;;;;8.07;7.47;;;;;;;;;;5060806;28;20437;-68
2022/05/10 07:31:08;;;;;;;8.75;8.15;;;;;;;;;;5060684;28;20431;-68
2022/05/10 07:33:33;;;;;;;8.50;7.82;;;;;;;;;;5060176;28;20335;-68
2022/05/10 07:38:43;;;;;;;9.75;9.05;;;;;;;;;;5064684;28;20064;-69
2022/05/10 07:41:11;;;;;;;9.43;8.73;;;;;;;;;;5066467;28;20129;-69
2022/05/10 07:43:37;;;;;;;10.25;9.55;;;;;;;;;;5067214;28;20048;-70
2022/05/10 07:46:04;;;;;;;12.05;11.15;;;;;;;;;;5066732;28;20045;-69
2022/05/10 07:48:30;;;;;;;13.52;12.73;;;;;;;;;;5065912;28;20054;-70
2022/05/10 07:50:56;;;;;;;12.32;11.63;;;;;;;;;;5066722;28;20442;-69
2022/05/10 07:53:21;;;;;;;13.88;13.02;;;;;;;;;;5066134;28;20109;-69
2022/05/10 07:55:46;;;;;;;16.75;15.75;;;;;;;;;;5066632;28;20044;-71
2022/05/10 07:58:12;;;;;;;9.77;9.07;;;;;;;;;;5065356;28;20036;-69
2022/05/10 08:00:40;;;;;;;19.05;17.92;;;;;;;;;;5066854;28;20059;-69
2022/05/10 08:03:14;;;;;;;17.25;15.77;;;;;;;;;;5066456;28;20117;-69
2022/05/10 08:05:40;;;;;;;21.25;20.08;;;;;;;;;;5065127;28;20358;-70
2022/05/10 08:08:07;;;;;;;26.20;24.70;;;;;;;;;;5066000;28;20044;-69
2022/05/10 08:10:33;;;;;;;25.75;24.35;;;;;;;;;;5065253;28;20032;-69
2022/05/10 08:12:58;;;;;;;20.17;19.02;;;;;;;;;;5066944;28;20040;-69
2022/05/10 08:15:24;;;;;;;18.02;17.05;;;;;;;;;;5065115;28;20328;-69
2022/05/10 08:17:49;;;;;;;27.48;25.88;;;;;;;;;;5064493;28;20491;-70
2022/05/10 08:20:15;;;;;;;21.65;20.40;;;;;;;;;;5065861;28;20024;-70
2022/05/10 08:22:41;;;;;;;30.67;29.02;;;;;;;;;;5065520;28;20028;-69
2022/05/10 08:25:07;;;;;;;33.67;31.88;;;;;;;;;;5067370;28;20037;-68
2022/05/10 08:27:32;;;;;;;24.23;22.73;;;;;;;;;;5064661;28;20082;-70
2022/05/10 08:29:58;;;;;;;21.90;20.67;;;;;;;;;;5065578;28;20056;-69
2022/05/10 08:32:24;;;;;;;38.00;35.85;;;;;;;;;;5066437;28;20032;-74
2022/05/10 08:34:49;;;;;;;28.45;26.95;;;;;;;;;;5065222;28;20470;-71
2022/05/10 08:37:14;;;;;;;25.45;24.05;;;;;;;;;;5064758;28;20056;-69
2022/05/10 08:39:40;;;;;;;23.98;22.67;;;;;;;;;;5065569;28;20032;-70
2022/05/10 08:42:21;;;;;;;31.90;30.20;;;;;;;;;;5065974;28;20115;-70
2022/05/10 08:44:53;;;;;;;34.67;32.78;;;;;;;;;;5063695;28;20036;-69
2022/05/10 08:47:18;;;;;;;35.10;33.10;;;;;;;;;;5063928;28;20037;-70
2022/05/10 08:49:57;;;;;;;31.88;30.08;;;;;;;;;;5065443;28;20044;-68
2022/05/10 08:52:28;;;;;;;36.60;34.30;;;;;;;;;;5065429;28;20402;-68
2022/05/10 08:54:54;;;;;;;30.52;28.83;;;;;;;;;;5064929;28;20185;-69
2022/05/10 08:57:36;;;;;;;28.10;26.50;;;;;;;;;;5063054;28;20103;-68
2022/05/10 09:00:07;;;;;;;24.55;23.15;;;;;;;;;;5061625;28;20056;-68
2022/05/10 09:02:57;;;;;;;27.52;26.02;;;;;;;;;;5062078;28;20055;-68
2022/05/10 09:05:28;;;;;;;27.30;25.73;;;;;;;;;;5064813;28;20047;-68
2022/05/10 09:08:36;;;;;;;28.58;26.85;;;;;;;;;;5062228;28;20695;-68
2022/05/10 09:11:04;;;;;;;26.05;24.63;;;;;;;;;;5061989;28;20135;-70
2022/05/10 09:13:30;;;;;;;27.88;26.35;;;;;;;;;;5062907;28;20153;-68
2022/05/10 09:16:06;;;;;;;33.72;31.48;;;;;;;;;;5062479;28;20037;-69
2022/05/10 09:18:42;;;;;;;29.98;28.13;;;;;;;;;;5061908;28;20991;-68
2022/05/10 09:21:27;;;;;;;27.10;25.15;;;;;;;;;;5062276;28;20040;-70
2022/05/10 09:24:24;;;;;;;27.17;25.70;;;;;;;;;;5060192;28;20068;-69
2022/05/10 09:26:53;;;;;;;30.35;28.70;;;;;;;;;;5060428;28;20028;-68
2022/05/10 09:29:27;;;;;;;20.25;19.10;;;;;;;;;;5061580;28;20048;-69
2022/05/10 09:34:47;;;;;;;16.10;15.10;;;;;;;;;;5060924;28;20135;-69
2022/05/10 09:37:31;;;;;;;17.17;16.17;;;;;;;;;;5059824;28;20036;-70
2022/05/10 09:39:57;;;;;;;32.15;30.45;;;;;;;;;;5059742;28;20074;-69
2022/05/10 09:42:37;;;;;;;22.55;21.08;;;;;;;;;;5060202;28;20036;-69
2022/05/10 09:45:20;;;;;;;32.25;30.55;;;;;;;;;;5060696;28;20119;-69
2022/05/10 09:47:59;;;;;;;33.15;30.65;;;;;;;;;;5059686;28;20052;-71
2022/05/10 09:50:40;;;;;;;20.45;19.25;;;;;;;;;;5060915;28;20058;-70
2022/05/10 09:53:11;;;;;;;20.08;18.98;;;;;;;;;;5058477;28;20622;-73
2022/05/10 09:55:38;;;;;;;17.25;16.25;;;;;;;;;;5061998;28;20124;-68
2022/05/10 09:58:20;;;;;;;20.35;19.05;;;;;;;;;;5065072;28;20033;-68
2022/05/10 10:00:55;;;;;;;29.35;27.77;;;;;;;;;;5064964;28;20656;-69
2022/05/10 10:03:30;;;;;;;28.42;26.92;;;;;;;;;;5063643;28;20498;-72
2022/05/10 10:06:12;;;;;;;31.55;29.77;;;;;;;;;;5063855;28;20064;-68
2022/05/10 10:08:43;;;;;;;21.42;20.13;;;;;;;;;;5078242;28;20362;-71
2022/05/10 10:11:30;;;;;;;24.77;23.48;;;;;;;;;;5064038;28;20028;-69
2022/05/10 10:13:57;;;;;;;26.00;24.63;;;;;;;;;;5063789;28;20090;-69
2022/05/10 10:16:33;;;;;;;30.80;29.13;;;;;;;;;;5064899;28;20440;-69
2022/05/10 10:19:26;;;;;;;20.15;19.05;;;;;;;;;;5063593;28;20028;-71
2022/05/10 10:21:56;;;;;;;26.92;25.42;;;;;;;;;;5063463;28;20112;-70
2022/05/10 10:24:25;;;;;;;;;;;;;;;;;;5065368;28;20051;-69
2022/05/10 10:26:57;;;;;;;39.05;36.97;;;;;;;;;;5063441;28;19916;-68
2022/05/10 10:29:39;;;;;;;35.55;33.65;;;;;;;;;;5063414;28;20614;-71
2022/05/10 10:32:15;;;;;;;36.28;34.28;;;;;;;;;;5064348;28;20109;-70
2022/05/10 10:34:56;;;;;;;42.17;39.90;;;;;;;;;;5063768;28;20040;-70
2022/05/10 10:37:36;;;;;;;39.58;37.47;;;;;;;;;;5063881;28;20055;-70
2022/05/10 10:40:07;;;;;;;41.28;39.17;;;;;;;;;;5064514;28;20051;-68
2022/05/10 10:42:48;;;;;;;48.13;45.58;;;;;;;;;;5064132;28;20649;-68
2022/05/10 10:45:15;;;;;;;47.30;44.80;;;;;;;;;;5064160;28;20032;-68
2022/05/10 10:48:05;;;;;;;59.22;56.17;;;;;;;;;;5064208;28;20182;-68
2022/05/10 10:50:33;;;;;;;69.38;65.90;;;;;;;;;;5064198;28;20037;-68
2022/05/10 10:53:00;;;;;;;68.07;64.65;;;;;;;;;;5062327;28;20040;-68
2022/05/10 10:55:44;;;;;;;51.22;48.50;;;;;;;;;;5064565;28;20024;-68
2022/05/10 10:58:32;;;;;;;78.57;74.60;;;;;;;;;;5078685;28;20508;-68
2022/05/10 11:01:22;;;;;;;106.38;101.00;;;;;;;;;;5063303;28;20555;-69
2022/05/10 11:04:22;;;;;;;79.35;75.43;;;;;;;;;;5063358;28;20036;-69
2022/05/10 11:06:52;;;;;;;106.60;101.32;;;;;;;;;;5064014;28;20036;-72
2022/05/10 11:09:39;;;;;;;111.70;106.15;;;;;;;;;;5066063;28;20028;-69
2022/05/10 11:12:16;;;;;;;160.93;152.85;;;;;;;;;;5066245;28;20033;-68
2022/05/10 11:14:50;;;;;;;137.45;130.45;;;;;;;;;;5067728;28;20075;-69
2022/05/10 11:17:48;;;;;;;173.02;164.50;;;;;;;;;;5067088;28;20067;-69
2022/05/10 11:20:52;;;;;;;136.32;129.50;;;;;;;;;;5066641;28;20040;-71
2022/05/10 11:23:37;;;;;;;151.50;143.77;;;;;;;;;;5067329;28;20094;-69
2022/05/10 11:26:41;;;;;;;171.82;163.32;;;;;;;;;;5067847;28;20033;-71
2022/05/10 11:29:38;;;;;;;160.15;152.10;;;;;;;;;;5067155;28;20112;-69
2022/05/10 11:32:35;;;;;;;181.27;172.32;;;;;;;;;;5066612;28;20047;-69
2022/05/10 11:35:15;;;;;;;88.20;83.72;;;;;;;;;;5066355;28;20060;-69
2022/05/10 11:38:06;;;;;;;79.30;75.28;;;;;;;;;;5066975;28;20407;-68
2022/05/10 11:40:39;;;;;;;72.22;68.63;;;;;;;;;;5066323;28;20131;-70
2022/05/10 11:43:43;;;;;;;74.95;71.13;;;;;;;;;;5066659;28;20028;-71
2022/05/10 11:46:25;;;;;;;71.65;68.05;;;;;;;;;;5067539;28;20119;-70
2022/05/10 11:49:21;;;;;;;80.47;76.40;;;;;;;;;;5066311;28;20028;-69
2022/05/10 11:52:05;;;;;;;79.43;75.35;;;;;;;;;;5066980;28;20682;-72
2022/05/10 11:54:54;;;;;;;74.65;70.85;;;;;;;;;;5076988;28;20040;-69
2022/05/10 11:57:22;;;;;;;86.78;82.25;;;;;;;;;;5066174;28;20048;-71
2022/05/10 11:59:48;;;;;;;81.65;77.55;;;;;;;;;;5066971;28;20575;-69
2022/05/10 12:02:28;;;;;;;99.88;94.85;;;;;;;;;;5067300;28;20025;-69
2022/05/10 12:05:31;;;;;;;97.65;92.80;;;;;;;;;;5066690;28;20043;-68
2022/05/10 12:08:02;;;;;;;74.20;70.47;;;;;;;;;;5064972;28;20053;-68
2022/05/10 12:10:33;;;;;;;98.80;93.93;;;;;;;;;;5059321;28;20630;-69
2022/05/10 12:22:08;;;;;;;123.10;117.00;;;;;;;;;;5082403;28;20724;-68
2022/05/10 12:24:44;;;;;;;158.05;150.25;;;;;;;;;;5051414;28;20025;-68
2022/05/10 12:27:12;;;;;;;180.40;171.57;;;;;;;;;;5065726;28;20046;-67
2022/05/10 12:29:37;;;;;;;178.55;169.77;;;;;;;;;;5065621;28;20046;-67
2022/05/10 12:32:18;;;;;;;194.52;185.07;;;;;;;;;;5065971;28;20111;-67
2022/05/10 12:34:54;;;;;;;156.77;149.00;;;;;;;;;;5065721;28;20796;-67
2022/05/10 12:37:24;;;;;;;189.23;179.98;;;;;;;;;;5066483;28;20347;-67
2022/05/10 12:40:08;;;;;;;170.48;162.07;;;;;;;;;;5066104;28;20185;-69
2022/05/10 12:43:15;;;;;;;191.30;181.98;;;;;;;;;;5065087;28;20032;-67
2022/05/10 12:46:01;;;;;;;166.05;157.88;;;;;;;;;;5065816;28;20025;-68
2022/05/10 12:48:44;;;;;;;155.70;148.02;;;;;;;;;;5065566;28;20020;-68
2022/05/10 12:51:22;;;;;;;153.25;145.65;;;;;;;;;;5064776;28;20379;-68
2022/05/10 12:53:54;;;;;;;176.20;167.50;;;;;;;;;;5064986;28;20028;-69
2022/05/10 12:56:22;;;;;;;175.18;166.48;;;;;;;;;;5066371;28;20043;-68
2022/05/10 12:58:52;;;;;;;178.57;169.80;;;;;;;;;;5065724;28;20577;-67
2022/05/10 13:01:19;;;;;;;177.20;168.50;;;;;;;;;;5064918;28;20033;-67
2022/05/10 13:03:51;;;;;;;182.52;173.63;;;;;;;;;;5065659;28;20099;-68
2022/05/10 13:06:19;;;;;;;177.27;168.57;;;;;;;;;;5064925;28;20032;-67
2022/05/10 13:09:15;;;;;;;180.18;171.15;;;;;;;;;;5065790;28;20199;-68
2022/05/10 13:11:54;;;;;;;186.57;177.38;;;;;;;;;;5079965;28;20029;-66
2022/05/10 13:14:21;;;;;;;190.57;181.30;;;;;;;;;;5065290;28;20036;-67
2022/05/10 13:16:49;;;;;;;191.98;182.63;;;;;;;;;;5065941;28;20393;-68
2022/05/10 13:19:17;;;;;;;163.02;154.95;;;;;;;;;;5065131;28;20032;-68
2022/05/10 13:21:43;;;;;;;158.65;150.73;;;;;;;;;;5047901;28;20028;-67
2022/05/10 13:24:15;;;;;;;200.95;191.23;;;;;;;;;;5065719;28;20037;-69
2022/05/10 13:26:59;;;;;;;175.65;167.00;;;;;;;;;;5064399;28;20059;-67
2022/05/10 13:29:41;;;;;;;188.10;178.82;;;;;;;;;;5064331;28;20680;-73
2022/05/10 13:32:11;;;;;;;131.55;125.03;;;;;;;;;;5064097;28;20408;-65
2022/05/10 13:34:48;;;;;;;178.80;170.02;;;;;;;;;;5064902;28;20028;-66
2022/05/10 13:37:27;;;;;;;189.20;180.00;;;;;;;;;;5064408;28;20033;-67
2022/05/10 13:39:53;;;;;;;178.80;170.00;;;;;;;;;;5065206;28;20036;-67
2022/05/10 13:42:19;;;;;;;179.75;170.93;;;;;;;;;;5064958;28;20036;-67
2022/05/10 13:44:45;;;;;;;178.35;169.55;;;;;;;;;;5064615;28;20037;-67
2022/05/10 13:47:26;;;;;;;185.57;176.15;;;;;;;;;;5064687;28;20458;-66
2022/05/10 13:49:51;;;;;;;181.48;172.57;;;;;;;;;;5064079;28;20557;-68
2022/05/10 13:52:43;;;;;;;185.45;176.38;;;;;;;;;;5063648;28;20104;-67
2022/05/10 13:55:16;;;;;;;146.90;139.68;;;;;;;;;;5065304;28;20625;-65
2022/05/10 13:57:55;;;;;;;173.50;165.00;;;;;;;;;;5064251;28;20577;-67
2022/05/10 14:00:25;;;;;;;164.43;156.32;;;;;;;;;;5064423;28;20028;-67
2022/05/10 14:02:55;;;;;;;166.38;158.13;;;;;;;;;;5064941;28;20064;-68
2022/05/10 14:05:23;;;;;;;159.73;151.82;;;;;;;;;;5064318;28;20093;-66
2022/05/10 14:07:57;;;;;;;173.63;165.10;;;;;;;;;;5058103;28;20413;-66
2022/05/10 14:10:28;;;;;;;172.57;164.07;;;;;;;;;;5064952;28;20048;-66
2022/05/10 14:12:57;;;;;;;179.00;170.20;;;;;;;;;;5064702;28;20036;-66
2022/05/10 14:15:38;;;;;;;167.18;158.93;;;;;;;;;;5065173;28;20039;-67
2022/05/10 14:18:07;;;;;;;;;;;;;;;;;;5064797;28;20115;-68
2022/05/10 14:20:35;;;;;;;168.80;160.48;;;;;;;;;;5064907;28;19939;-65
2022/05/10 14:23:06;;;;;;;191.32;182.05;;;;;;;;;;5063721;28;20452;-67
2022/05/10 14:25:35;;;;;;;185.32;176.25;;;;;;;;;;5063986;28;20111;-66
2022/05/10 14:28:13;;;;;;;191.07;181.77;;;;;;;;;;5063778;28;20058;-67
2022/05/10 14:30:47;;;;;;;158.40;150.63;;;;;;;;;;5064501;28;20031;-67
2022/05/10 14:33:35;;;;;;;175.65;167.00;;;;;;;;;;5065329;28;20095;-66
2022/05/10 14:36:03;;;;;;;158.73;150.93;;;;;;;;;;5063586;28;20039;-69
2022/05/10 14:38:28;;;;;;;165.45;157.32;;;;;;;;;;5064852;28;20450;-67
2022/05/10 14:40:54;;;;;;;150.48;143.00;;;;;;;;;;5063479;28;20067;-68
2022/05/10 14:43:30;;;;;;;179.15;170.43;;;;;;;;;;5066617;28;20059;-66
2022/05/10 14:45:58;;;;;;;116.25;110.43;;;;;;;;;;5062914;28;20119;-67
2022/05/10 14:48:36;;;;;;;159.90;151.88;;;;;;;;;;5068397;28;20032;-67
2022/05/10 14:51:33;;;;;;;156.73;149.05;;;;;;;;;;5068429;28;20044;-66
2022/05/10 14:53:58;;;;;;;161.65;153.65;;;;;;;;;;5068381;28;20035;-65
2022/05/10 14:56:36;;;;;;;123.63;117.50;;;;;;;;;;5067958;28;20521;-66
2022/05/10 15:00:18;;;;;;;110.93;105.43;;;;;;;;;;5067842;28;20037;-66
2022/05/10 15:02:35;;;;;;;129.98;123.50;;;;;;;;;;5060705;28;20093;-66
2022/05/10 15:05:10;;;;;;;133.55;126.93;;;;;;;;;;5067343;28;20032;-67
2022/05/10 15:07:36;;;;;;;140.38;133.43;;;;;;;;;;5068712;28;20036;-66
2022/05/10 15:10:02;;;;;;;162.35;154.35;;;;;;;;;;5067842;28;20032;-65
2022/05/10 15:15:11;;;;;;;105.75;100.32;;;;;;;;;;5067367;28;20119;-67
2022/05/10 15:20:23;;;;;;;154.65;147.00;;;;;;;;;;5067968;28;20067;-67
2022/05/10 15:22:48;;;;;;;108.43;103.03;;;;;;;;;;5067631;28;20032;-67